sensor_id;sensor_type;location;lat;lon;timestamp;P1;durP1;ratioP1;P2;durP2;ratioP2
43527;SDS011;52359;42.658;23.320;2023-04-25T06:16:13;16.80;;;8.60;;
43527;SDS011;52359;42.658;23.320;2023-04-25T06:18:39;16.23;;;8.40;;
43527;SDS011;52359;42.658;23.320;2023-04-25T06:21:05;8.75;;;6.72;;
43527;SDS011;52359;42.658;23.320;2023-04-25T06:23:31;17.42;;;6.75;;
43527;SDS011;52359;42.658;23.320;2023-04-25T06:25:57;13.55;;;6.45;;
43527;SDS011;52359;42.658;23.320;2023-04-25T06:28:23;9.30;;;6.90;;
43527;SDS011;52359;42.658;23.320;2023-04-25T06:30:50;13.00;;;7.10;;
43527;SDS011;52359;42.658;23.320;2023-04-25T06:33:16;12.27;;;7.40;;
43527;SDS011;52359;42.658;23.320;2023-04-25T06:35:42;13.60;;;6.80;;
43527;SDS011;52359;42.658;23.320;2023-04-25T06:38:08;10.60;;;6.55;;
43527;SDS011;52359;42.658;23.320;2023-04-25T06:40:34;10.93;;;6.75;;
43527;SDS011;52359;42.658;23.320;2023-04-25T06:43:00;8.88;;;7.20;;
43527;SDS011;52359;42.658;23.320;2023-04-25T06:45:26;9.45;;;7.25;;
43527;SDS011;52359;42.658;23.320;2023-04-25T06:47:52;9.65;;;5.90;;
43527;SDS011;52359;42.658;23.320;2023-04-25T06:50:18;10.40;;;6.15;;
43527;SDS011;52359;42.658;23.320;2023-04-25T06:52:44;6.97;;;6.28;;
43527;SDS011;52359;42.658;23.320;2023-04-25T06:55:10;10.75;;;6.90;;
43527;SDS011;52359;42.658;23.320;2023-04-25T06:57:36;9.82;;;7.55;;
43527;SDS011;52359;42.658;23.320;2023-04-25T07:00:03;14.38;;;7.88;;
43527;SDS011;52359;42.658;23.320;2023-04-25T07:02:35;12.30;;;7.40;;
43527;SDS011;52359;42.658;23.320;2023-04-25T07:05:01;11.48;;;7.22;;
43527;SDS011;52359;42.658;23.320;2023-04-25T07:07:29;9.57;;;6.72;;
43527;SDS011;52359;42.658;23.320;2023-04-25T07:09:55;21.58;;;7.82;;
43527;SDS011;52359;42.658;23.320;2023-04-25T07:12:21;11.40;;;7.22;;
43527;SDS011;52359;42.658;23.320;2023-04-25T07:14:47;11.48;;;7.53;;
43527;SDS011;52359;42.658;23.320;2023-04-25T07:17:13;12.85;;;7.10;;
43527;SDS011;52359;42.658;23.320;2023-04-25T07:19:40;9.57;;;6.53;;
43527;SDS011;52359;42.658;23.320;2023-04-25T07:22:06;14.68;;;7.18;;
43527;SDS011;52359;42.658;23.320;2023-04-25T07:24:32;15.73;;;7.75;;
43527;SDS011;52359;42.658;23.320;2023-04-25T07:26:58;10.25;;;7.78;;
43527;SDS011;52359;42.658;23.320;2023-04-25T07:29:25;8.85;;;7.00;;
43527;SDS011;52359;42.658;23.320;2023-04-25T07:31:51;9.05;;;6.00;;
43527;SDS011;52359;42.658;23.320;2023-04-25T07:34:18;12.27;;;6.60;;
43527;SDS011;52359;42.658;23.320;2023-04-25T07:36:44;13.95;;;5.93;;
43527;SDS011;52359;42.658;23.320;2023-04-25T07:39:10;13.80;;;6.60;;
43527;SDS011;52359;42.658;23.320;2023-04-25T07:41:36;14.75;;;6.57;;
43527;SDS011;52359;42.658;23.320;2023-04-25T07:44:02;7.70;;;5.25;;
43527;SDS011;52359;42.658;23.320;2023-04-25T07:46:28;13.45;;;5.53;;
43527;SDS011;52359;42.658;23.320;2023-04-25T07:48:54;7.88;;;5.55;;
43527;SDS011;52359;42.658;23.320;2023-04-25T07:51:20;7.32;;;4.80;;
43527;SDS011;52359;42.658;23.320;2023-04-25T07:53:47;12.82;;;5.20;;
43527;SDS011;52359;42.658;23.320;2023-04-25T07:56:13;7.25;;;5.10;;
43527;SDS011;52359;42.658;23.320;2023-04-25T07:58:39;11.82;;;4.68;;
43527;SDS011;52359;42.658;23.320;2023-04-25T08:01:05;7.60;;;4.90;;
43527;SDS011;52359;42.658;23.320;2023-04-25T08:03:31;8.63;;;5.75;;
43527;SDS011;52359;42.658;23.320;2023-04-25T08:05:57;9.90;;;5.30;;
43527;SDS011;52359;42.658;23.320;2023-04-25T08:08:23;12.20;;;5.93;;
43527;SDS011;52359;42.658;23.320;2023-04-25T08:10:49;10.15;;;4.88;;
43527;SDS011;52359;42.658;23.320;2023-04-25T08:13:15;6.28;;;4.80;;
43527;SDS011;52359;42.658;23.320;2023-04-25T08:15:41;14.27;;;4.65;;
43527;SDS011;52359;42.658;23.320;2023-04-25T08:18:07;10.60;;;3.75;;
43527;SDS011;52359;42.658;23.320;2023-04-25T08:20:33;7.10;;;3.38;;
43527;SDS011;52359;42.658;23.320;2023-04-25T08:22:59;9.82;;;3.33;;
43527;SDS011;52359;42.658;23.320;2023-04-25T08:25:25;9.10;;;4.28;;
43527;SDS011;52359;42.658;23.320;2023-04-25T08:27:51;19.00;;;5.00;;
43527;SDS011;52359;42.658;23.320;2023-04-25T08:30:17;13.80;;;3.75;;
43527;SDS011;52359;42.658;23.320;2023-04-25T08:32:44;13.88;;;3.85;;
43527;SDS011;52359;42.658;23.320;2023-04-25T08:35:10;12.90;;;4.00;;
43527;SDS011;52359;42.658;23.320;2023-04-25T08:37:36;16.40;;;4.22;;
43527;SDS011;52359;42.658;23.320;2023-04-25T08:40:03;8.43;;;3.67;;
43527;SDS011;52359;42.658;23.320;2023-04-25T08:42:32;6.20;;;2.97;;
43527;SDS011;52359;42.658;23.320;2023-04-25T08:45:00;4.63;;;4.10;;
43527;SDS011;52359;42.658;23.320;2023-04-25T08:47:26;3.00;;;2.40;;
43527;SDS011;52359;42.658;23.320;2023-04-25T08:49:53;2.92;;;2.60;;
43527;SDS011;52359;42.658;23.320;2023-04-25T08:52:23;6.25;;;2.97;;
43527;SDS011;52359;42.658;23.320;2023-04-25T08:54:49;5.97;;;3.75;;
43527;SDS011;52359;42.658;23.320;2023-04-25T08:57:17;5.63;;;3.25;;
43527;SDS011;52359;42.658;23.320;2023-04-25T08:59:43;5.15;;;3.88;;
43527;SDS011;52359;42.658;23.320;2023-04-25T09:02:11;6.03;;;4.70;;
43527;SDS011;52359;42.658;23.320;2023-04-25T09:04:44;10.18;;;4.65;;
43527;SDS011;52359;42.658;23.320;2023-04-25T09:07:10;7.40;;;4.32;;
43527;SDS011;52359;42.658;23.320;2023-04-25T09:09:36;7.53;;;4.10;;
43527;SDS011;52359;42.658;23.320;2023-04-25T09:12:02;6.05;;;3.67;;
43527;SDS011;52359;42.658;23.320;2023-04-25T09:14:28;9.25;;;3.83;;
43527;SDS011;52359;42.658;23.320;2023-04-25T09:19:28;10.98;;;3.60;;
43527;SDS011;52359;42.658;23.320;2023-04-25T09:21:58;4.22;;;2.40;;
43527;SDS011;52359;42.658;23.320;2023-04-25T09:26:57;7.82;;;3.10;;
43527;SDS011;52359;42.658;23.320;2023-04-25T09:29:29;7.32;;;3.03;;
43527;SDS011;52359;42.658;23.320;2023-04-25T09:34:41;4.93;;;3.75;;
43527;SDS011;52359;42.658;23.320;2023-04-25T09:37:10;7.70;;;4.50;;
43527;SDS011;52359;42.658;23.320;2023-04-25T09:39:37;7.53;;;4.20;;
43527;SDS011;52359;42.658;23.320;2023-04-25T09:42:04;4.43;;;4.03;;
43527;SDS011;52359;42.658;23.320;2023-04-25T09:44:30;10.00;;;4.55;;
43527;SDS011;52359;42.658;23.320;2023-04-25T09:46:56;8.80;;;4.90;;
43527;SDS011;52359;42.658;23.320;2023-04-25T09:49:24;7.43;;;4.57;;
43527;SDS011;52359;42.658;23.320;2023-04-25T09:51:58;9.80;;;4.45;;
43527;SDS011;52359;42.658;23.320;2023-04-25T09:54:25;7.00;;;4.43;;
43527;SDS011;52359;42.658;23.320;2023-04-25T09:56:51;10.98;;;4.28;;
43527;SDS011;52359;42.658;23.320;2023-04-25T09:59:21;9.93;;;4.20;;
43527;SDS011;52359;42.658;23.320;2023-04-25T10:01:50;9.43;;;3.85;;
43527;SDS011;52359;42.658;23.320;2023-04-25T10:04:24;8.25;;;2.75;;
43527;SDS011;52359;42.658;23.320;2023-04-25T10:06:53;3.88;;;3.20;;
43527;SDS011;52359;42.658;23.320;2023-04-25T10:09:20;11.82;;;3.40;;
43527;SDS011;52359;42.658;23.320;2023-04-25T10:11:48;6.30;;;2.78;;
43527;SDS011;52359;42.658;23.320;2023-04-25T10:14:14;7.03;;;3.22;;
43527;SDS011;52359;42.658;23.320;2023-04-25T10:16:41;9.25;;;2.80;;
43527;SDS011;52359;42.658;23.320;2023-04-25T10:19:08;4.72;;;2.08;;
43527;SDS011;52359;42.658;23.320;2023-04-25T10:21:34;3.67;;;1.10;;
43527;SDS011;52359;42.658;23.320;2023-04-25T10:24:00;2.38;;;1.17;;
43527;SDS011;52359;42.658;23.320;2023-04-25T10:26:27;4.10;;;0.95;;
43527;SDS011;52359;42.658;23.320;2023-04-25T10:29:02;3.75;;;1.00;;
43527;SDS011;52359;42.658;23.320;2023-04-25T10:31:29;4.40;;;1.40;;
43527;SDS011;52359;42.658;23.320;2023-04-25T10:33:56;9.27;;;2.30;;
43527;SDS011;52359;42.658;23.320;2023-04-25T10:36:22;8.95;;;2.08;;
43527;SDS011;52359;42.658;23.320;2023-04-25T10:38:49;6.00;;;1.65;;
43527;SDS011;52359;42.658;23.320;2023-04-25T10:41:19;2.70;;;1.20;;
43527;SDS011;52359;42.658;23.320;2023-04-25T10:43:46;3.58;;;0.82;;
43527;SDS011;52359;42.658;23.320;2023-04-25T10:46:16;2.35;;;1.85;;
43527;SDS011;52359;42.658;23.320;2023-04-25T10:48:44;4.07;;;1.13;;
43527;SDS011;52359;42.658;23.320;2023-04-25T10:51:16;6.18;;;1.35;;
43527;SDS011;52359;42.658;23.320;2023-04-25T10:53:43;9.68;;;1.10;;
43527;SDS011;52359;42.658;23.320;2023-04-25T10:56:19;1.35;;;0.90;;
43527;SDS011;52359;42.658;23.320;2023-04-25T10:58:46;6.15;;;1.30;;
43527;SDS011;52359;42.658;23.320;2023-04-25T11:01:15;4.43;;;1.40;;
43527;SDS011;52359;42.658;23.320;2023-04-25T11:03:42;3.15;;;1.40;;
43527;SDS011;52359;42.658;23.320;2023-04-25T11:06:12;17.02;;;2.25;;
43527;SDS011;52359;42.658;23.320;2023-04-25T11:08:50;12.43;;;2.08;;
43527;SDS011;52359;42.658;23.320;2023-04-25T11:11:17;3.55;;;1.20;;
43527;SDS011;52359;42.658;23.320;2023-04-25T11:13:43;12.80;;;1.23;;
43527;SDS011;52359;42.658;23.320;2023-04-25T11:16:10;1.98;;;1.08;;
43527;SDS011;52359;42.658;23.320;2023-04-25T11:18:36;1.23;;;1.00;;
43527;SDS011;52359;42.658;23.320;2023-04-25T11:21:03;3.42;;;1.27;;
43527;SDS011;52359;42.658;23.320;2023-04-25T11:23:29;1.00;;;0.90;;
43527;SDS011;52359;42.658;23.320;2023-04-25T11:25:56;0.80;;;0.80;;
43527;SDS011;52359;42.658;23.320;2023-04-25T11:28:22;0.95;;;0.90;;
43527;SDS011;52359;42.658;23.320;2023-04-25T11:30:48;1.35;;;1.00;;
43527;SDS011;52359;42.658;23.320;2023-04-25T11:33:18;1.67;;;1.52;;
43527;SDS011;52359;42.658;23.320;2023-04-25T11:35:48;1.00;;;1.00;;
43527;SDS011;52359;42.658;23.320;2023-04-25T11:38:14;4.07;;;1.45;;
43527;SDS011;52359;42.658;23.320;2023-04-25T11:40:40;3.88;;;1.30;;
43527;SDS011;52359;42.658;23.320;2023-04-25T11:43:06;3.75;;;0.90;;
43527;SDS011;52359;42.658;23.320;2023-04-25T11:45:32;4.88;;;1.48;;
43527;SDS011;52359;42.658;23.320;2023-04-25T11:47:58;10.30;;;1.50;;
43527;SDS011;52359;42.658;23.320;2023-04-25T11:50:24;3.85;;;1.17;;
43527;SDS011;52359;42.658;23.320;2023-04-25T11:52:55;2.33;;;0.80;;
43527;SDS011;52359;42.658;23.320;2023-04-25T11:55:22;1.05;;;1.00;;
43527;SDS011;52359;42.658;23.320;2023-04-25T11:57:48;13.38;;;1.30;;
43527;SDS011;52359;42.658;23.320;2023-04-25T12:00:16;2.03;;;0.77;;
43527;SDS011;52359;42.658;23.320;2023-04-25T12:02:43;3.42;;;1.35;;
43527;SDS011;52359;42.658;23.320;2023-04-25T12:05:10;3.05;;;0.82;;
43527;SDS011;52359;42.658;23.320;2023-04-25T12:07:36;1.35;;;0.93;;
43527;SDS011;52359;42.658;23.320;2023-04-25T12:10:10;1.05;;;0.90;;
43527;SDS011;52359;42.658;23.320;2023-04-25T12:12:37;1.05;;;0.73;;
43527;SDS011;52359;42.658;23.320;2023-04-25T12:15:13;4.90;;;0.90;;
43527;SDS011;52359;42.658;23.320;2023-04-25T12:17:47;2.05;;;0.85;;
43527;SDS011;52359;42.658;23.320;2023-04-25T12:20:14;1.73;;;1.25;;
43527;SDS011;52359;42.658;23.320;2023-04-25T12:22:44;0.75;;;0.75;;
43527;SDS011;52359;42.658;23.320;2023-04-25T12:25:11;4.53;;;0.90;;
43527;SDS011;52359;42.658;23.320;2023-04-25T12:27:38;1.42;;;0.98;;
43527;SDS011;52359;42.658;23.320;2023-04-25T12:30:08;1.00;;;0.85;;
43527;SDS011;52359;42.658;23.320;2023-04-25T12:32:35;5.95;;;1.00;;
43527;SDS011;52359;42.658;23.320;2023-04-25T12:35:02;3.50;;;1.75;;
43527;SDS011;52359;42.658;23.320;2023-04-25T12:37:28;1.17;;;1.08;;
43527;SDS011;52359;42.658;23.320;2023-04-25T12:39:55;1.02;;;1.00;;
43527;SDS011;52359;42.658;23.320;2023-04-25T12:42:21;7.28;;;1.05;;
43527;SDS011;52359;42.658;23.320;2023-04-25T12:44:47;2.28;;;1.17;;
43527;SDS011;52359;42.658;23.320;2023-04-25T12:47:12;7.32;;;1.65;;
43527;SDS011;52359;42.658;23.320;2023-04-25T12:49:38;6.03;;;1.52;;
43527;SDS011;52359;42.658;23.320;2023-04-25T12:52:04;3.78;;;1.27;;
43527;SDS011;52359;42.658;23.320;2023-04-25T12:54:29;1.67;;;1.13;;
43527;SDS011;52359;42.658;23.320;2023-04-25T12:56:56;2.05;;;0.85;;
43527;SDS011;52359;42.658;23.320;2023-04-25T12:59:22;1.80;;;1.17;;
43527;SDS011;52359;42.658;23.320;2023-04-25T13:01:48;3.28;;;1.17;;
43527;SDS011;52359;42.658;23.320;2023-04-25T13:04:14;4.95;;;0.75;;
43527;SDS011;52359;42.658;23.320;2023-04-25T13:06:40;2.85;;;1.25;;
43527;SDS011;52359;42.658;23.320;2023-04-25T13:09:06;1.98;;;0.93;;
43527;SDS011;52359;42.658;23.320;2023-04-25T13:11:33;1.33;;;1.15;;
43527;SDS011;52359;42.658;23.320;2023-04-25T13:14:00;1.38;;;1.27;;
43527;SDS011;52359;42.658;23.320;2023-04-25T13:16:26;1.60;;;1.50;;
43527;SDS011;52359;42.658;23.320;2023-04-25T13:18:52;4.50;;;1.95;;
43527;SDS011;52359;42.658;23.320;2023-04-25T13:21:18;3.85;;;1.40;;
43527;SDS011;52359;42.658;23.320;2023-04-25T13:23:44;4.57;;;2.47;;
43527;SDS011;52359;42.658;23.320;2023-04-25T13:26:11;6.68;;;2.90;;
43527;SDS011;52359;42.658;23.320;2023-04-25T13:28:37;6.65;;;2.88;;
43527;SDS011;52359;42.658;23.320;2023-04-25T13:31:05;7.10;;;3.38;;
43527;SDS011;52359;42.658;23.320;2023-04-25T13:33:31;6.65;;;2.72;;
43527;SDS011;52359;42.658;23.320;2023-04-25T13:35:57;7.78;;;3.40;;
43527;SDS011;52359;42.658;23.320;2023-04-25T13:38:24;5.72;;;3.45;;
43527;SDS011;52359;42.658;23.320;2023-04-25T13:40:50;11.52;;;3.13;;
43527;SDS011;52359;42.658;23.320;2023-04-25T13:43:18;6.57;;;2.53;;
43527;SDS011;52359;42.658;23.320;2023-04-25T13:45:44;4.63;;;2.65;;
43527;SDS011;52359;42.658;23.320;2023-04-25T13:48:10;7.10;;;2.08;;
43527;SDS011;52359;42.658;23.320;2023-04-25T13:50:36;2.17;;;1.90;;
43527;SDS011;52359;42.658;23.320;2023-04-25T13:53:02;3.17;;;2.45;;
43527;SDS011;52359;42.658;23.320;2023-04-25T13:55:28;4.82;;;2.35;;
43527;SDS011;52359;42.658;23.320;2023-04-25T13:57:55;9.63;;;1.67;;
43527;SDS011;52359;42.658;23.320;2023-04-25T14:00:21;1.63;;;1.13;;
43527;SDS011;52359;42.658;23.320;2023-04-25T14:02:47;7.80;;;5.13;;
43527;SDS011;52359;42.658;23.320;2023-04-25T14:05:13;4.53;;;1.70;;
43527;SDS011;52359;42.658;23.320;2023-04-25T14:07:39;2.90;;;1.30;;
43527;SDS011;52359;42.658;23.320;2023-04-25T14:10:05;3.08;;;1.23;;
43527;SDS011;52359;42.658;23.320;2023-04-25T14:12:32;1.67;;;1.42;;
43527;SDS011;52359;42.658;23.320;2023-04-25T14:14:58;1.88;;;1.30;;
43527;SDS011;52359;42.658;23.320;2023-04-25T14:17:25;3.53;;;1.33;;
43527;SDS011;52359;42.658;23.320;2023-04-25T14:19:51;1.48;;;1.38;;
43527;SDS011;52359;42.658;23.320;2023-04-25T14:22:17;2.80;;;1.65;;
43527;SDS011;52359;42.658;23.320;2023-04-25T14:24:43;5.75;;;1.30;;
43527;SDS011;52359;42.658;23.320;2023-04-25T14:27:10;2.65;;;1.85;;
43527;SDS011;52359;42.658;23.320;2023-04-25T14:29:36;4.57;;;1.20;;
43527;SDS011;52359;42.658;23.320;2023-04-25T14:32:02;3.25;;;1.35;;
43527;SDS011;52359;42.658;23.320;2023-04-25T14:34:30;2.85;;;1.65;;
43527;SDS011;52359;42.658;23.320;2023-04-25T14:36:56;1.42;;;1.33;;
43527;SDS011;52359;42.658;23.320;2023-04-25T14:39:22;5.90;;;1.25;;
43527;SDS011;52359;42.658;23.320;2023-04-25T14:41:48;1.75;;;1.42;;
43527;SDS011;52359;42.658;23.320;2023-04-25T14:44:14;1.88;;;1.00;;
43527;SDS011;52359;42.658;23.320;2023-04-25T14:46:40;2.28;;;1.35;;
43527;SDS011;52359;42.658;23.320;2023-04-25T14:49:06;1.10;;;1.10;;
43527;SDS011;52359;42.658;23.320;2023-04-25T14:51:32;1.00;;;1.00;;
43527;SDS011;52359;42.658;23.320;2023-04-25T14:53:58;3.80;;;1.30;;
43527;SDS011;52359;42.658;23.320;2023-04-25T14:56:25;2.53;;;1.60;;
43527;SDS011;52359;42.658;23.320;2023-04-25T14:58:51;3.58;;;1.30;;
43527;SDS011;52359;42.658;23.320;2023-04-25T15:01:17;1.20;;;1.20;;
43527;SDS011;52359;42.658;23.320;2023-04-25T15:03:45;2.38;;;1.38;;
43527;SDS011;52359;42.658;23.320;2023-04-25T15:06:11;3.38;;;1.50;;
43527;SDS011;52359;42.658;23.320;2023-04-25T15:08:37;2.13;;;1.92;;
43527;SDS011;52359;42.658;23.320;2023-04-25T15:11:03;1.17;;;1.13;;
43527;SDS011;52359;42.658;23.320;2023-04-25T15:13:29;6.80;;;1.40;;
43527;SDS011;52359;42.658;23.320;2023-04-25T15:15:56;3.58;;;1.42;;
43527;SDS011;52359;42.658;23.320;2023-04-25T15:18:21;1.90;;;1.70;;
43527;SDS011;52359;42.658;23.320;2023-04-25T15:20:50;4.97;;;1.92;;
43527;SDS011;52359;42.658;23.320;2023-04-25T15:23:17;2.42;;;1.73;;
43527;SDS011;52359;42.658;23.320;2023-04-25T15:25:43;2.30;;;1.80;;
43527;SDS011;52359;42.658;23.320;2023-04-25T15:28:09;3.55;;;1.70;;
43527;SDS011;52359;42.658;23.320;2023-04-25T15:30:35;3.22;;;2.05;;
43527;SDS011;52359;42.658;23.320;2023-04-25T15:33:02;4.78;;;3.00;;
43527;SDS011;52359;42.658;23.320;2023-04-25T15:35:28;7.55;;;2.05;;
43527;SDS011;52359;42.658;23.320;2023-04-25T15:37:54;2.67;;;2.17;;
43527;SDS011;52359;42.658;23.320;2023-04-25T15:40:20;2.53;;;1.95;;
43527;SDS011;52359;42.658;23.320;2023-04-25T15:42:47;1.65;;;1.48;;
43527;SDS011;52359;42.658;23.320;2023-04-25T15:45:15;1.67;;;1.58;;
43527;SDS011;52359;42.658;23.320;2023-04-25T15:47:42;3.53;;;1.80;;
43527;SDS011;52359;42.658;23.320;2023-04-25T15:50:08;3.20;;;1.98;;
43527;SDS011;52359;42.658;23.320;2023-04-25T15:52:35;3.35;;;2.05;;
43527;SDS011;52359;42.658;23.320;2023-04-25T15:55:01;2.60;;;1.77;;
43527;SDS011;52359;42.658;23.320;2023-04-25T15:57:28;3.58;;;2.08;;
43527;SDS011;52359;42.658;23.320;2023-04-25T15:59:54;1.80;;;1.70;;
43527;SDS011;52359;42.658;23.320;2023-04-25T16:02:21;5.28;;;2.00;;
43527;SDS011;52359;42.658;23.320;2023-04-25T16:04:47;1.95;;;1.85;;
43527;SDS011;52359;42.658;23.320;2023-04-25T16:07:13;2.17;;;1.98;;
43527;SDS011;52359;42.658;23.320;2023-04-25T16:09:39;6.13;;;2.28;;
43527;SDS011;52359;42.658;23.320;2023-04-25T16:12:06;4.25;;;2.50;;
43527;SDS011;52359;42.658;23.320;2023-04-25T16:14:32;3.03;;;2.10;;
43527;SDS011;52359;42.658;23.320;2023-04-25T16:16:58;6.40;;;2.33;;
43527;SDS011;52359;42.658;23.320;2023-04-25T16:19:24;2.53;;;2.15;;
43527;SDS011;52359;42.658;23.320;2023-04-25T16:21:51;4.07;;;2.35;;
43527;SDS011;52359;42.658;23.320;2023-04-25T16:24:17;2.63;;;1.90;;
43527;SDS011;52359;42.658;23.320;2023-04-25T16:26:43;2.83;;;1.90;;
43527;SDS011;52359;42.658;23.320;2023-04-25T16:29:09;4.85;;;2.03;;
43527;SDS011;52359;42.658;23.320;2023-04-25T16:31:36;4.82;;;1.58;;
43527;SDS011;52359;42.658;23.320;2023-04-25T16:34:02;3.13;;;1.63;;
43527;SDS011;52359;42.658;23.320;2023-04-25T16:36:29;6.85;;;2.08;;
43527;SDS011;52359;42.658;23.320;2023-04-25T16:38:58;6.22;;;2.22;;
43527;SDS011;52359;42.658;23.320;2023-04-25T16:41:27;3.03;;;2.05;;
43527;SDS011;52359;42.658;23.320;2023-04-25T16:43:54;5.60;;;2.08;;
43527;SDS011;52359;42.658;23.320;2023-04-25T16:46:19;5.55;;;2.35;;
43527;SDS011;52359;42.658;23.320;2023-04-25T16:48:47;2.97;;;2.65;;
43527;SDS011;52359;42.658;23.320;2023-04-25T16:51:14;2.85;;;2.58;;
43527;SDS011;52359;42.658;23.320;2023-04-25T16:53:40;6.30;;;3.03;;
43527;SDS011;52359;42.658;23.320;2023-04-25T16:56:06;3.42;;;3.13;;
43527;SDS011;52359;42.658;23.320;2023-04-25T16:58:36;6.95;;;3.67;;
43527;SDS011;52359;42.658;23.320;2023-04-25T17:01:02;4.15;;;3.78;;
43527;SDS011;52359;42.658;23.320;2023-04-25T17:03:28;9.90;;;3.85;;
43527;SDS011;52359;42.658;23.320;2023-04-25T17:05:55;5.35;;;4.28;;
43527;SDS011;52359;42.658;23.320;2023-04-25T17:08:24;7.50;;;4.65;;
43527;SDS011;52359;42.658;23.320;2023-04-25T17:10:50;4.00;;;3.70;;
43527;SDS011;52359;42.658;23.320;2023-04-25T17:13:16;3.90;;;3.60;;
43527;SDS011;52359;42.658;23.320;2023-04-25T17:15:42;3.70;;;3.40;;
43527;SDS011;52359;42.658;23.320;2023-04-25T17:18:08;4.07;;;3.47;;
43527;SDS011;52359;42.658;23.320;2023-04-25T17:20:34;2.80;;;2.60;;
43527;SDS011;52359;42.658;23.320;2023-04-25T17:23:00;2.80;;;2.60;;
43527;SDS011;52359;42.658;23.320;2023-04-25T17:25:27;2.88;;;2.63;;
43527;SDS011;52359;42.658;23.320;2023-04-25T17:27:53;3.03;;;2.05;;
43527;SDS011;52359;42.658;23.320;2023-04-25T17:30:19;2.55;;;2.30;;
43527;SDS011;52359;42.658;23.320;2023-04-25T17:32:46;2.53;;;2.33;;
43527;SDS011;52359;42.658;23.320;2023-04-25T17:35:12;2.65;;;2.45;;
43527;SDS011;52359;42.658;23.320;2023-04-25T17:37:40;2.67;;;2.47;;
43527;SDS011;52359;42.658;23.320;2023-04-25T17:40:06;2.95;;;2.58;;
43527;SDS011;52359;42.658;23.320;2023-04-25T17:42:36;2.45;;;2.25;;
43527;SDS011;52359;42.658;23.320;2023-04-25T17:45:02;4.50;;;2.90;;
43527;SDS011;52359;42.658;23.320;2023-04-25T17:47:28;3.08;;;2.78;;
43527;SDS011;52359;42.658;23.320;2023-04-25T17:49:54;5.50;;;2.83;;
43527;SDS011;52359;42.658;23.320;2023-04-25T17:52:20;2.30;;;2.10;;
43527;SDS011;52359;42.658;23.320;2023-04-25T17:54:46;2.40;;;2.20;;
43527;SDS011;52359;42.658;23.320;2023-04-25T17:57:12;2.83;;;2.42;;
43527;SDS011;52359;42.658;23.320;2023-04-25T17:59:38;4.15;;;2.38;;
43527;SDS011;52359;42.658;23.320;2023-04-25T18:02:04;2.95;;;2.53;;
43527;SDS011;52359;42.658;23.320;2023-04-25T18:04:30;4.25;;;2.67;;
43527;SDS011;52359;42.658;23.320;2023-04-25T18:06:56;3.47;;;2.22;;
43527;SDS011;52359;42.658;23.320;2023-04-25T18:09:23;3.78;;;2.00;;
43527;SDS011;52359;42.658;23.320;2023-04-25T18:11:52;1.95;;;1.85;;
43527;SDS011;52359;42.658;23.320;2023-04-25T18:14:19;2.80;;;1.88;;
43527;SDS011;52359;42.658;23.320;2023-04-25T18:16:46;1.95;;;1.80;;
43527;SDS011;52359;42.658;23.320;2023-04-25T18:19:13;2.47;;;1.65;;
43527;SDS011;52359;42.658;23.320;2023-04-25T18:21:55;3.90;;;1.88;;
43527;SDS011;52359;42.658;23.320;2023-04-25T18:24:22;2.05;;;1.70;;
43527;SDS011;52359;42.658;23.320;2023-04-25T18:26:51;1.88;;;1.77;;
43527;SDS011;52359;42.658;23.320;2023-04-25T18:29:19;1.65;;;1.55;;
43527;SDS011;52359;42.658;23.320;2023-04-25T18:31:45;2.00;;;1.42;;
43527;SDS011;52359;42.658;23.320;2023-04-25T18:34:11;1.60;;;1.50;;
43527;SDS011;52359;42.658;23.320;2023-04-25T18:36:38;2.72;;;1.83;;
43527;SDS011;52359;42.658;23.320;2023-04-25T18:39:05;1.50;;;1.40;;
43527;SDS011;52359;42.658;23.320;2023-04-25T18:41:32;1.77;;;1.42;;
43527;SDS011;52359;42.658;23.320;2023-04-25T18:43:58;1.70;;;1.60;;
43527;SDS011;52359;42.658;23.320;2023-04-25T18:46:29;1.73;;;1.63;;
43527;SDS011;52359;42.658;23.320;2023-04-25T18:49:14;1.23;;;1.13;;
43527;SDS011;52359;42.658;23.320;2023-04-25T18:51:40;1.58;;;1.30;;
43527;SDS011;52359;42.658;23.320;2023-04-25T18:54:06;1.95;;;1.65;;
43527;SDS011;52359;42.658;23.320;2023-04-25T18:56:34;1.50;;;1.40;;
43527;SDS011;52359;42.658;23.320;2023-04-25T18:59:00;1.52;;;1.42;;
43527;SDS011;52359;42.658;23.320;2023-04-25T19:01:26;2.15;;;1.67;;
43527;SDS011;52359;42.658;23.320;2023-04-25T19:03:52;1.85;;;1.60;;
43527;SDS011;52359;42.658;23.320;2023-04-25T19:06:21;2.38;;;1.63;;
43527;SDS011;52359;42.658;23.320;2023-04-25T19:08:48;1.35;;;1.10;;
43527;SDS011;52359;42.658;23.320;2023-04-25T19:11:15;3.00;;;1.42;;
43527;SDS011;52359;42.658;23.320;2023-04-25T19:13:41;1.38;;;1.23;;
43527;SDS011;52359;42.658;23.320;2023-04-25T19:16:07;1.17;;;1.17;;
43527;SDS011;52359;42.658;23.320;2023-04-25T19:18:33;1.63;;;1.30;;
43527;SDS011;52359;42.658;23.320;2023-04-25T19:20:58;2.20;;;1.80;;
43527;SDS011;52359;42.658;23.320;2023-04-25T19:23:24;1.50;;;1.40;;
43527;SDS011;52359;42.658;23.320;2023-04-25T19:25:50;1.60;;;1.50;;
43527;SDS011;52359;42.658;23.320;2023-04-25T19:28:17;1.85;;;1.58;;
43527;SDS011;52359;42.658;23.320;2023-04-25T19:30:42;1.67;;;1.58;;
43527;SDS011;52359;42.658;23.320;2023-04-25T19:33:09;2.20;;;1.45;;
43527;SDS011;52359;42.658;23.320;2023-04-25T19:35:35;1.55;;;1.33;;
43527;SDS011;52359;42.658;23.320;2023-04-25T19:38:00;1.67;;;1.38;;
43527;SDS011;52359;42.658;23.320;2023-04-25T19:40:27;1.55;;;1.30;;
43527;SDS011;52359;42.658;23.320;2023-04-25T19:42:53;1.58;;;1.48;;
43527;SDS011;52359;42.658;23.320;2023-04-25T19:45:19;2.22;;;1.52;;
43527;SDS011;52359;42.658;23.320;2023-04-25T19:47:45;2.40;;;1.80;;
43527;SDS011;52359;42.658;23.320;2023-04-25T19:50:12;17.92;;;2.42;;
43527;SDS011;52359;42.658;23.320;2023-04-25T19:52:38;4.78;;;1.80;;
43527;SDS011;52359;42.658;23.320;2023-04-25T19:55:04;6.32;;;2.17;;
43527;SDS011;52359;42.658;23.320;2023-04-25T19:57:30;1.40;;;1.40;;
43527;SDS011;52359;42.658;23.320;2023-04-25T20:00:00;2.17;;;1.60;;
43527;SDS011;52359;42.658;23.320;2023-04-25T20:02:28;1.55;;;1.42;;
43527;SDS011;52359;42.658;23.320;2023-04-25T20:04:54;3.70;;;2.13;;
43527;SDS011;52359;42.658;23.320;2023-04-25T20:07:20;5.45;;;2.90;;
43527;SDS011;52359;42.658;23.320;2023-04-25T20:09:47;7.07;;;3.13;;
43527;SDS011;52359;42.658;23.320;2023-04-25T20:12:14;2.40;;;2.13;;
43527;SDS011;52359;42.658;23.320;2023-04-25T20:14:40;4.55;;;2.83;;
